createdAt,value
2023-05-01T00:00:44.777Z,80.11
2023-05-01T00:01:44.943Z,80.21
2023-05-01T00:02:45.146Z,80.11
2023-05-01T00:03:45.005Z,80.18
2023-05-01T00:04:44.863Z,79.60
2023-05-01T00:05:45.111Z,80.07
2023-05-01T00:06:44.907Z,79.97
2023-05-01T00:07:44.739Z,79.77
2023-05-01T00:08:44.741Z,80.28
2023-05-01T00:09:44.793Z,79.97
2023-05-01T00:10:44.956Z,79.87
2023-05-01T00:11:45.037Z,80.18
2023-05-01T00:12:44.933Z,80.07
2023-05-01T00:13:44.734Z,80.07
2023-05-01T00:14:44.653Z,80.11
2023-05-01T00:15:44.853Z,81.10
2023-05-01T00:16:44.754Z,80.01
2023-05-01T00:17:44.756Z,80.11
2023-05-01T00:18:44.703Z,80.83
2023-05-01T00:19:44.635Z,80.90
2023-05-01T00:20:44.655Z,80.93
2023-05-01T00:21:44.613Z,81.04
2023-05-01T00:22:44.653Z,80.93
2023-05-01T00:23:44.635Z,80.83
2023-05-01T00:24:44.575Z,80.52
2023-05-01T00:25:44.569Z,79.91
2023-05-01T00:26:44.569Z,80.73
2023-05-01T00:27:44.617Z,79.80
2023-05-01T00:28:44.551Z,79.70
2023-05-01T00:29:44.888Z,78.85
2023-05-01T00:30:44.597Z,79.25
2023-05-01T00:31:44.641Z,79.60
2023-05-01T00:32:44.552Z,79.77
2023-05-01T00:33:44.576Z,78.94
2023-05-01T00:34:44.578Z,79.80
2023-05-01T00:35:44.576Z,79.91
2023-05-01T00:36:44.519Z,80.07
2023-05-01T00:37:44.474Z,80.11
2023-05-01T00:38:44.456Z,79.77
2023-05-01T00:39:44.459Z,81.10
2023-05-01T00:40:44.446Z,79.60
2023-05-01T00:41:44.482Z,79.29
2023-05-01T00:42:44.449Z,79.39
2023-05-01T00:43:44.446Z,79.77
2023-05-01T00:44:44.451Z,79.49
2023-05-01T00:45:44.474Z,79.91
2023-05-01T00:46:44.444Z,80.01
2023-05-01T00:47:44.475Z,79.70
2023-05-01T00:48:44.393Z,79.49
2023-05-01T00:49:44.368Z,80.11
2023-05-01T00:51:27.528Z,80.01
2023-05-01T00:51:45.382Z,79.80
2023-05-01T00:52:44.397Z,79.84
2023-05-01T00:53:44.404Z,80.15
2023-05-01T00:54:44.368Z,80.52
2023-05-01T00:55:44.356Z,80.87
2023-05-01T00:56:44.345Z,81.18
2023-05-01T00:57:44.309Z,81.18
2023-05-01T00:58:44.304Z,81.28
2023-05-01T00:59:44.349Z,80.87
2023-05-01T01:00:44.330Z,80.80
2023-05-01T01:01:44.375Z,80.97
2023-05-01T01:02:44.317Z,81.42
2023-05-01T01:03:44.268Z,81.01
2023-05-01T01:04:44.435Z,81.18
2023-05-01T01:05:44.335Z,81.18
2023-05-01T01:06:44.310Z,81.59
2023-05-01T01:07:44.267Z,81.11
2023-05-01T01:08:44.265Z,81.62
2023-05-01T01:09:44.253Z,81.42
2023-05-01T01:10:44.249Z,81.62
2023-05-01T01:11:44.265Z,81.62
2023-05-01T01:12:44.227Z,81.52
2023-05-01T01:13:44.222Z,81.62
2023-05-01T01:14:44.207Z,81.62
2023-05-01T01:15:44.203Z,82.24
2023-05-01T01:16:44.267Z,82.34
2023-05-01T01:17:44.265Z,82.24
2023-05-01T01:18:44.188Z,81.83
2023-05-01T01:19:44.166Z,82.07
2023-05-01T01:20:44.170Z,81.87
2023-05-01T01:21:44.171Z,82.39
2023-05-01T01:22:44.147Z,82.48
2023-05-01T01:23:44.186Z,82.28
2023-05-01T01:24:44.144Z,82.39
2023-05-01T01:25:44.124Z,82.59
2023-05-01T01:26:44.127Z,82.79
2023-05-01T01:27:44.132Z,82.48
2023-05-01T01:28:44.107Z,83.20
2023-05-01T01:29:44.166Z,82.79
2023-05-01T01:30:44.146Z,82.59
2023-05-01T01:31:44.325Z,82.53
2023-05-01T01:32:44.114Z,82.53
2023-05-01T01:33:44.086Z,82.48
2023-05-01T01:34:44.071Z,83.62
2023-05-01T01:35:44.585Z,83.41
2023-05-01T01:36:44.068Z,83.00
2023-05-01T01:37:44.049Z,83.86
2023-05-01T01:38:44.066Z,82.79
2023-05-01T01:39:44.026Z,82.01
2023-05-01T01:40:44.031Z,83.35
2023-05-01T01:41:44.068Z,83.31
2023-05-01T01:42:44.008Z,82.73
2023-05-01T01:43:44.013Z,82.53
2023-05-01T01:44:44.010Z,81.81
2023-05-01T01:45:43.985Z,82.11
2023-05-01T01:46:44.035Z,83.14
2023-05-01T01:47:44.054Z,83.86
2023-05-01T01:48:43.965Z,81.91
2023-05-01T01:49:43.947Z,81.76
2023-05-01T01:50:43.953Z,81.19
2023-05-01T01:51:43.949Z,80.67
2023-05-01T01:52:43.957Z,81.05
2023-05-01T01:53:43.970Z,81.49
2023-05-01T01:54:43.920Z,81.15
2023-05-01T01:55:43.913Z,81.05
2023-05-01T01:56:43.943Z,79.95
2023-05-01T01:57:43.953Z,81.15
2023-05-01T01:58:43.884Z,81.49
2023-05-01T01:59:43.969Z,80.02
2023-05-01T02:00:43.890Z,81.56
2023-05-01T02:01:43.942Z,81.25
2023-05-01T02:02:43.941Z,80.77
2023-05-01T02:03:44.081Z,81.29
2023-05-01T02:04:43.850Z,81.29
2023-05-01T02:05:43.876Z,81.09
2023-05-01T02:06:43.960Z,81.49
2023-05-01T02:07:43.833Z,81.49
2023-05-01T02:08:43.827Z,82.32
2023-05-01T02:09:43.785Z,82.35
2023-05-01T02:10:43.785Z,83.39
2023-05-01T02:11:43.845Z,84.42
2023-05-01T02:12:43.791Z,84.00
2023-05-01T02:13:43.788Z,83.90
2023-05-01T02:14:43.775Z,83.90
2023-05-01T02:15:43.824Z,83.28
2023-05-01T02:16:43.792Z,83.42
2023-05-01T02:17:43.846Z,83.53
2023-05-01T02:18:43.749Z,83.59
2023-05-01T02:19:43.751Z,83.18
2023-05-01T02:20:43.710Z,83.63
2023-05-01T02:21:43.732Z,84.31
2023-05-01T02:22:43.718Z,83.94
2023-05-01T02:23:43.762Z,83.63
2023-05-01T02:24:43.737Z,83.42
2023-05-01T02:25:43.684Z,84.31
2023-05-01T02:26:43.697Z,84.77
2023-05-01T02:27:43.693Z,85.17
2023-05-01T02:28:43.672Z,84.77
2023-05-01T02:29:43.713Z,86.00
2023-05-01T02:30:43.673Z,85.59
2023-05-01T02:31:43.718Z,85.28
2023-05-01T02:32:43.704Z,84.35
2023-05-01T02:33:43.650Z,84.05
2023-05-01T02:34:43.632Z,83.07
2023-05-01T02:35:43.688Z,83.28
2023-05-01T02:36:43.640Z,83.90
2023-05-01T02:37:43.616Z,84.72
2023-05-01T02:38:43.688Z,84.00
2023-05-01T02:39:43.566Z,83.18
2023-05-01T02:40:43.576Z,84.11
2023-05-01T02:41:44.083Z,84.31
2023-05-01T02:42:43.579Z,84.11
2023-05-01T02:43:43.577Z,84.21
2023-05-01T02:44:43.547Z,83.28
2023-05-01T02:45:43.548Z,82.97
2023-05-01T02:46:43.563Z,82.77
2023-05-01T02:47:43.600Z,83.70
2023-05-01T02:48:43.512Z,82.97
2023-05-01T02:49:43.519Z,83.70
2023-05-01T02:50:43.494Z,83.70
2023-05-01T02:51:43.488Z,83.90
2023-05-01T02:52:43.496Z,83.80
2023-05-01T02:53:43.503Z,83.90
2023-05-01T02:54:43.483Z,84.17
2023-05-01T02:55:43.459Z,84.83
2023-05-01T02:56:43.478Z,84.00
2023-05-01T02:57:43.458Z,84.42
2023-05-01T02:58:43.461Z,84.11
2023-05-01T02:59:43.470Z,83.90
2023-05-01T03:00:43.456Z,84.00
2023-05-01T03:01:43.475Z,84.62
2023-05-01T03:02:43.425Z,83.90
2023-05-01T03:03:43.467Z,83.70
2023-05-01T03:04:43.487Z,83.80
2023-05-01T03:05:43.420Z,83.90
2023-05-01T03:06:43.435Z,83.90
2023-05-01T03:07:43.396Z,84.11
2023-05-01T03:08:43.378Z,83.70
2023-05-01T03:09:43.392Z,84.00
2023-05-01T03:10:43.392Z,83.59
2023-05-01T03:11:43.402Z,82.56
2023-05-01T03:12:43.338Z,84.00
2023-05-01T03:13:43.327Z,83.39
2023-05-01T03:14:43.321Z,83.70
2023-05-01T03:15:43.304Z,83.90
2023-05-01T03:16:43.367Z,84.83
2023-05-01T03:17:43.388Z,83.80
2023-05-01T03:18:43.309Z,83.70
2023-05-01T03:19:43.297Z,83.39
2023-05-01T03:20:43.267Z,82.67
2023-05-01T03:21:43.267Z,82.56
2023-05-01T03:22:43.277Z,82.56
2023-05-01T03:23:43.300Z,83.35
2023-05-01T03:24:43.244Z,83.28
2023-05-01T03:25:43.241Z,82.35
2023-05-01T03:26:43.252Z,81.43
2023-05-01T03:27:43.215Z,82.67
2023-05-01T03:28:43.280Z,82.63
2023-05-01T03:29:43.263Z,82.35
2023-05-01T03:30:43.197Z,81.53
2023-05-01T03:31:43.249Z,81.74
2023-05-01T03:32:43.241Z,81.74
2023-05-01T03:33:43.213Z,81.63
2023-05-01T03:34:43.192Z,81.74
2023-05-01T03:35:43.274Z,82.67
2023-05-01T03:36:43.179Z,82.67
2023-05-01T03:37:43.143Z,81.95
2023-05-01T03:38:43.161Z,82.67
2023-05-01T03:39:43.157Z,83.49
2023-05-01T03:40:43.150Z,82.56
2023-05-01T03:41:43.623Z,82.77
2023-05-01T03:42:43.145Z,83.39
2023-05-01T03:43:43.108Z,83.49
2023-05-01T03:44:43.107Z,83.28
2023-05-01T03:45:44.906Z,83.18
2023-05-01T03:46:43.182Z,82.87
2023-05-01T03:47:43.167Z,82.77
2023-05-01T03:48:43.088Z,83.18
2023-05-01T03:49:43.082Z,84.00
2023-05-01T03:50:43.088Z,84.00
2023-05-01T03:51:43.092Z,83.39
2023-05-01T03:52:43.083Z,82.93
2023-05-01T03:53:43.062Z,82.73
2023-05-01T03:54:43.047Z,83.18
2023-05-01T03:55:43.024Z,82.97
2023-05-01T03:56:43.016Z,83.04
2023-05-01T03:57:43.061Z,83.49
2023-05-01T03:58:43.033Z,83.65
2023-05-01T03:59:43.029Z,83.86
2023-05-01T04:00:43.003Z,83.97
2023-05-01T04:01:43.058Z,82.42
2023-05-01T04:02:43.265Z,83.65
2023-05-01T04:03:43.094Z,83.97
2023-05-01T04:04:42.946Z,83.55
2023-05-01T04:05:43.027Z,82.01
2023-05-01T04:06:42.978Z,82.63
2023-05-01T04:07:43.020Z,82.42
2023-05-01T04:08:42.923Z,82.53
2023-05-01T04:09:42.958Z,82.93
2023-05-01T04:10:42.928Z,82.53
2023-05-01T04:11:42.980Z,82.73
2023-05-01T04:12:42.917Z,82.32
2023-05-01T04:13:42.941Z,82.01
2023-05-01T04:14:42.901Z,81.70
2023-05-01T04:15:42.889Z,82.11
2023-05-01T04:16:42.891Z,82.42
2023-05-01T04:17:42.927Z,82.11
2023-05-01T04:18:42.856Z,82.01
2023-05-01T04:19:42.851Z,82.21
2023-05-01T04:20:42.844Z,81.60
2023-05-01T04:21:42.823Z,82.63
2023-05-01T04:22:42.832Z,81.70
2023-05-01T04:23:42.870Z,81.76
2023-05-01T04:24:42.808Z,82.39
2023-05-01T04:25:42.813Z,81.46
2023-05-01T04:26:42.803Z,81.15
2023-05-01T04:27:42.786Z,81.56
2023-05-01T04:28:42.808Z,81.87
2023-05-01T04:29:42.827Z,81.25
2023-05-01T04:30:42.774Z,81.35
2023-05-01T04:31:42.776Z,80.94
2023-05-01T04:32:42.794Z,79.91
2023-05-01T04:33:42.756Z,80.33
2023-05-01T04:34:42.752Z,81.67
2023-05-01T04:35:42.790Z,81.46
2023-05-01T04:36:42.736Z,80.84
2023-05-01T04:37:42.733Z,81.25
2023-05-01T04:38:42.708Z,79.91
2023-05-01T04:39:42.711Z,80.02
2023-05-01T04:40:42.706Z,79.91
2023-05-01T04:41:42.720Z,80.12
2023-05-01T04:42:42.689Z,80.02
2023-05-01T04:43:42.654Z,79.91
2023-05-01T04:44:42.677Z,81.56
2023-05-01T04:45:42.661Z,80.91
2023-05-01T04:46:42.706Z,80.53
2023-05-01T04:47:42.926Z,81.01
2023-05-01T04:48:42.630Z,81.52
2023-05-01T04:49:42.660Z,80.08
2023-05-01T04:50:42.665Z,79.88
2023-05-01T04:51:42.591Z,79.77
2023-05-01T04:52:42.593Z,80.70
2023-05-01T04:53:42.650Z,79.67
2023-05-01T04:54:42.592Z,80.19
2023-05-01T04:55:42.569Z,79.88
2023-05-01T04:56:43.144Z,79.67
2023-05-01T04:57:42.553Z,79.98
2023-05-01T04:58:42.542Z,79.98
2023-05-01T04:59:42.576Z,79.74
2023-05-01T05:00:42.555Z,79.43
2023-05-01T05:01:42.584Z,80.05
2023-05-01T05:02:42.596Z,79.02
2023-05-01T05:03:42.725Z,79.22
2023-05-01T05:04:42.504Z,79.33
2023-05-01T05:05:42.525Z,78.81
2023-05-01T05:06:42.549Z,78.71
2023-05-01T05:07:42.469Z,77.89
2023-05-01T05:08:42.474Z,78.20
2023-05-01T05:09:42.451Z,78.81
2023-05-01T05:10:42.457Z,78.50
2023-05-01T05:11:42.518Z,77.85
2023-05-01T05:12:42.450Z,77.55
2023-05-01T05:13:42.455Z,77.65
2023-05-01T05:14:42.456Z,77.95
2023-05-01T05:15:42.442Z,78.06
2023-05-01T05:16:42.442Z,78.67
2023-05-01T05:17:42.492Z,77.34
2023-05-01T05:18:42.402Z,76.42
2023-05-01T05:19:42.411Z,77.55
2023-05-01T05:20:42.391Z,77.44
2023-05-01T05:21:42.396Z,76.72
2023-05-01T05:22:42.381Z,77.71
2023-05-01T05:23:42.432Z,75.80
2023-05-01T05:24:42.365Z,76.62
2023-05-01T05:25:42.367Z,76.00
2023-05-01T05:26:42.351Z,75.70
2023-05-01T05:27:42.336Z,76.42
2023-05-01T05:28:42.343Z,75.49
2023-05-01T05:29:42.371Z,76.45
2023-05-01T05:30:42.326Z,77.13
2023-05-01T05:31:42.378Z,76.14
2023-05-01T05:32:42.403Z,76.62
2023-05-01T05:33:42.306Z,76.58
2023-05-01T05:34:42.324Z,77.20
2023-05-01T05:35:42.346Z,75.15
2023-05-01T05:36:42.295Z,75.08
2023-05-01T05:37:43.916Z,75.70
2023-05-01T05:38:42.256Z,77.30
2023-05-01T05:39:42.262Z,75.04
2023-05-01T05:40:42.277Z,75.15
2023-05-01T05:41:42.312Z,73.71
2023-05-01T05:42:42.226Z,75.25
2023-05-01T05:43:42.246Z,75.32
2023-05-01T05:44:42.223Z,73.33
2023-05-01T05:45:42.294Z,73.95
2023-05-01T05:46:42.256Z,73.13
2023-05-01T05:47:42.717Z,72.31
2023-05-01T05:48:42.191Z,72.68
2023-05-01T05:49:42.193Z,72.17
2023-05-01T05:50:42.177Z,72.99
2023-05-01T05:51:42.183Z,72.48
2023-05-01T05:52:42.184Z,72.86
2023-05-01T05:53:42.213Z,71.62
2023-05-01T05:54:42.155Z,72.03
2023-05-01T05:55:42.138Z,72.34
2023-05-01T05:56:42.140Z,72.41
2023-05-01T05:57:42.162Z,70.81
2023-05-01T05:58:42.169Z,70.60
2023-05-01T05:59:42.201Z,72.03
2023-05-01T06:00:42.133Z,71.90
2023-05-01T06:01:42.082Z,70.47
2023-05-01T06:02:42.173Z,71.62
2023-05-01T06:03:42.260Z,74.05
2023-05-01T06:04:42.094Z,71.80
2023-05-01T06:05:42.129Z,71.86
2023-05-01T06:06:42.115Z,71.66
2023-05-01T06:07:42.073Z,74.11
2023-05-01T06:08:42.046Z,73.10
2023-05-01T06:09:42.076Z,72.31
2023-05-01T06:10:42.044Z,73.10
2023-05-01T06:11:42.066Z,71.08
2023-05-01T06:12:44.546Z,71.73
2023-05-01T06:13:43.000Z,72.34
2023-05-01T06:14:42.023Z,72.34
2023-05-01T06:15:42.075Z,73.36
2023-05-01T06:16:41.977Z,71.42
2023-05-01T06:17:42.081Z,72.34
2023-05-01T06:18:43.338Z,72.34
2023-05-01T06:19:41.961Z,72.34
2023-05-01T06:20:41.952Z,71.42
2023-05-01T06:21:41.951Z,72.34
2023-05-01T06:22:41.947Z,71.83
2023-05-01T06:23:41.976Z,72.20
2023-05-01T06:24:41.934Z,72.07
2023-05-01T06:25:41.923Z,72.14
2023-05-01T06:26:41.919Z,71.90
2023-05-01T06:27:41.906Z,70.67
2023-05-01T06:28:41.892Z,70.16
2023-05-01T06:29:41.934Z,70.37
2023-05-01T06:30:41.873Z,70.84
2023-05-01T06:31:41.906Z,69.62
2023-05-01T06:32:41.927Z,68.60
2023-05-01T06:33:41.872Z,67.88
2023-05-01T06:34:41.832Z,68.08
2023-05-01T06:35:41.899Z,69.75
2023-05-01T06:36:41.837Z,68.52
2023-05-01T06:37:41.814Z,68.63
2023-05-01T06:38:41.831Z,70.06
2023-05-01T06:39:41.839Z,69.72
2023-05-01T06:40:41.809Z,66.75
2023-05-01T06:41:41.845Z,66.38
2023-05-01T06:42:41.777Z,67.30
2023-05-01T06:43:41.776Z,66.48
2023-05-01T06:44:41.772Z,66.17
2023-05-01T06:45:41.774Z,66.66
2023-05-01T06:46:41.780Z,66.75
2023-05-01T06:47:41.806Z,66.52
2023-05-01T06:48:41.745Z,66.18
2023-05-01T06:49:41.735Z,64.55
2023-05-01T06:50:41.759Z,64.07
2023-05-01T06:51:41.726Z,64.37
2023-05-01T06:52:41.730Z,64.14
2023-05-01T06:53:41.770Z,65.60
2023-05-01T06:54:41.702Z,65.06
2023-05-01T06:55:41.682Z,64.52
2023-05-01T06:56:41.693Z,62.99
2023-05-01T06:57:41.674Z,64.31
2023-05-01T06:58:41.681Z,62.81
2023-05-01T06:59:41.699Z,65.37
2023-05-01T07:00:41.744Z,63.59
2023-05-01T07:01:41.707Z,64.34
2023-05-01T07:02:41.825Z,62.81
2023-05-01T07:03:41.738Z,63.29
2023-05-01T07:04:41.624Z,62.92
2023-05-01T07:05:41.672Z,62.95
2023-05-01T07:06:41.656Z,63.07
2023-05-01T07:07:47.384Z,62.57
2023-05-01T07:08:42.606Z,62.63
2023-05-01T07:09:41.638Z,62.74
2023-05-01T07:10:42.369Z,63.15
2023-05-01T07:11:41.620Z,64.04
2023-05-01T07:12:41.573Z,63.15
2023-05-01T07:13:41.558Z,63.04
2023-05-01T07:14:41.576Z,63.45
2023-05-01T07:15:41.532Z,64.37
2023-05-01T07:16:41.570Z,62.92
2023-05-01T07:17:41.598Z,63.43
2023-05-01T07:18:41.517Z,64.01
2023-05-01T07:19:41.515Z,62.48
2023-05-01T07:20:41.519Z,63.29
2023-05-01T07:21:41.507Z,63.02
2023-05-01T07:22:43.866Z,62.71
2023-05-01T07:23:41.522Z,63.40
2023-05-01T07:24:41.489Z,64.52
2023-05-01T07:25:41.479Z,62.76
2023-05-01T07:26:41.471Z,63.40
2023-05-01T07:27:41.457Z,62.68
2023-05-01T07:28:41.468Z,62.71
2023-05-01T07:29:41.462Z,63.29
2023-05-01T07:30:41.450Z,63.98
2023-05-01T07:31:41.474Z,62.32
2023-05-01T07:32:41.444Z,62.55
2023-05-01T07:33:41.406Z,62.42
2023-05-01T07:34:41.410Z,62.70
2023-05-01T07:35:41.433Z,61.78
2023-05-01T07:36:41.405Z,61.95
2023-05-01T07:37:41.405Z,62.05
2023-05-01T07:38:41.380Z,62.02
2023-05-01T07:39:41.355Z,62.33
2023-05-01T07:40:41.388Z,63.01
2023-05-01T07:41:41.411Z,60.47
2023-05-01T07:42:41.356Z,59.86
2023-05-01T07:43:41.317Z,59.05
2023-05-01T07:44:41.334Z,60.64
2023-05-01T07:45:41.369Z,59.80
2023-05-01T07:46:41.309Z,60.21
2023-05-01T07:47:41.366Z,58.89
2023-05-01T07:48:41.330Z,60.00
2023-05-01T07:49:41.323Z,58.99
2023-05-01T07:50:41.297Z,59.77
2023-05-01T07:51:41.268Z,58.02
2023-05-01T07:52:41.291Z,58.12
2023-05-01T07:53:41.360Z,56.90
2023-05-01T07:54:41.247Z,59.64
2023-05-01T07:55:41.240Z,58.80
2023-05-01T07:56:41.256Z,58.60
2023-05-01T07:57:41.258Z,59.62
2023-05-01T07:58:41.222Z,58.06
2023-05-01T07:59:41.251Z,57.76
2023-05-01T08:00:41.231Z,56.41
2023-05-01T08:01:41.197Z,56.41
2023-05-01T08:02:41.442Z,56.24
2023-05-01T08:03:41.297Z,57.46
2023-05-01T08:04:41.248Z,59.01
2023-05-01T08:05:41.235Z,58.78
2023-05-01T08:06:41.251Z,58.65
2023-05-01T08:07:41.164Z,58.53
2023-05-01T08:08:41.143Z,57.99
2023-05-01T08:09:41.137Z,57.38
2023-05-01T08:10:41.130Z,58.67
2023-05-01T08:11:41.172Z,57.03
2023-05-01T08:12:41.141Z,57.35
2023-05-01T08:13:41.112Z,56.82
2023-05-01T08:14:41.103Z,55.10
2023-05-01T08:15:41.108Z,54.16
2023-05-01T08:16:41.190Z,54.36
2023-05-01T08:17:41.144Z,54.94
2023-05-01T08:18:41.071Z,55.65
2023-05-01T08:19:41.096Z,54.31
2023-05-01T08:20:41.076Z,53.02
2023-05-01T08:21:41.051Z,53.02
2023-05-01T08:22:41.073Z,53.27
2023-05-01T08:23:41.104Z,52.97
2023-05-01T08:24:41.046Z,56.09
2023-05-01T08:25:41.024Z,55.04
2023-05-01T08:26:41.020Z,54.11
2023-05-01T08:27:41.012Z,52.26
2023-05-01T08:28:41.023Z,53.09
2023-05-01T08:29:41.036Z,53.04
2023-05-01T08:30:41.003Z,52.86
2023-05-01T08:31:41.022Z,54.18
2023-05-01T08:32:41.001Z,54.39
2023-05-01T08:33:40.952Z,54.33
2023-05-01T08:34:40.971Z,54.44
2023-05-01T08:35:41.022Z,54.00
2023-05-01T08:36:40.956Z,52.41
2023-05-01T08:37:40.935Z,51.90
2023-05-01T08:38:40.942Z,52.71
2023-05-01T08:39:40.935Z,53.12
2023-05-01T08:40:40.931Z,53.19
2023-05-01T08:41:40.952Z,53.19
2023-05-01T08:42:40.911Z,53.07
2023-05-01T08:43:40.901Z,52.44
2023-05-01T08:44:40.888Z,52.06
2023-05-01T08:45:40.884Z,52.44
2023-05-01T08:46:40.915Z,51.32
2023-05-01T08:47:40.938Z,50.99
2023-05-01T08:48:40.850Z,50.64
2023-05-01T08:49:40.856Z,50.01
2023-05-01T08:50:40.830Z,50.39
2023-05-01T08:51:40.829Z,49.96
2023-05-01T08:52:40.825Z,50.49
2023-05-01T08:53:40.846Z,49.01
2023-05-01T08:54:40.806Z,49.58
2023-05-01T08:55:40.814Z,48.37
2023-05-01T08:56:40.785Z,48.39
2023-05-01T08:57:40.794Z,50.44
2023-05-01T08:58:40.783Z,51.45
2023-05-01T08:59:41.006Z,49.71
2023-05-01T09:00:40.789Z,49.58
2023-05-01T09:01:40.808Z,50.01
2023-05-01T09:02:40.789Z,50.95
2023-05-01T09:03:40.776Z,50.84
2023-05-01T09:04:40.727Z,48.78
2023-05-01T09:05:40.804Z,50.19
2023-05-01T09:06:40.758Z,48.02
2023-05-01T09:07:40.713Z,47.92
2023-05-01T09:08:40.706Z,47.64
2023-05-01T09:09:40.691Z,48.13
2023-05-01T09:10:40.689Z,48.22
2023-05-01T09:11:40.729Z,49.64
2023-05-01T09:12:40.660Z,48.43
2023-05-01T09:13:40.710Z,49.62
2023-05-01T09:14:40.649Z,48.93
2023-05-01T09:15:40.675Z,48.33
2023-05-01T09:16:40.687Z,48.21
2023-05-01T09:17:40.749Z,48.50
2023-05-01T09:18:40.616Z,48.85
2023-05-01T09:19:40.640Z,50.16
2023-05-01T09:20:40.614Z,49.64
2023-05-01T09:21:40.604Z,49.21
2023-05-01T09:22:40.614Z,49.90
2023-05-01T09:23:40.616Z,50.57
2023-05-01T09:24:40.586Z,49.47
2023-05-01T09:25:40.573Z,48.41
2023-05-01T09:26:40.573Z,47.49
2023-05-01T09:27:40.569Z,46.48
2023-05-01T09:28:40.556Z,46.68
2023-05-01T09:29:40.587Z,46.58
2023-05-01T09:30:40.535Z,44.87
2023-05-01T09:31:40.575Z,45.27
2023-05-01T09:32:42.548Z,47.49
2023-05-01T09:33:40.534Z,45.79
2023-05-01T09:34:40.526Z,46.38
2023-05-01T09:35:40.539Z,46.56
2023-05-01T09:36:40.479Z,47.90
2023-05-01T09:37:40.491Z,43.76
2023-05-01T09:38:40.468Z,44.48
2023-05-01T09:39:40.479Z,43.88
2023-05-01T09:40:40.449Z,47.27
2023-05-01T09:41:40.474Z,43.36
2023-05-01T09:42:40.435Z,44.95
2023-05-01T09:43:40.421Z,44.34
2023-05-01T09:44:40.443Z,43.54
2023-05-01T09:45:40.460Z,45.04
2023-05-01T09:46:40.514Z,44.54
2023-05-01T09:47:40.471Z,43.62
2023-05-01T09:48:40.446Z,42.63
2023-05-01T09:49:40.389Z,43.66
2023-05-01T09:50:40.379Z,43.36
2023-05-01T09:51:40.377Z,45.63
2023-05-01T09:52:40.376Z,47.92
2023-05-01T09:53:40.410Z,45.84
2023-05-01T09:54:40.359Z,42.82
2023-05-01T09:55:40.346Z,42.60
2023-05-01T09:56:40.326Z,42.99
2023-05-01T09:57:40.337Z,42.54
2023-05-01T09:58:40.309Z,42.97
2023-05-01T09:59:40.569Z,43.96
2023-05-01T10:00:40.292Z,44.74
2023-05-01T10:01:40.386Z,42.68
2023-05-01T10:02:40.351Z,42.16
2023-05-01T10:03:40.438Z,42.90
2023-05-01T10:04:40.306Z,42.88
2023-05-01T10:05:40.309Z,42.76
2023-05-01T10:06:40.337Z,41.93
2023-05-01T10:07:40.279Z,42.54
2023-05-01T10:08:40.231Z,42.13
2023-05-01T10:09:40.241Z,40.93
2023-05-01T10:10:40.243Z,42.61
2023-05-01T10:11:40.305Z,42.54
2023-05-01T10:12:40.204Z,41.43
2023-05-01T10:13:40.214Z,40.67
2023-05-01T10:14:40.210Z,42.68
2023-05-01T10:15:40.217Z,43.22
2023-05-01T10:16:40.236Z,43.27
2023-05-01T10:17:40.250Z,42.47
2023-05-01T10:18:40.190Z,41.96
2023-05-01T10:19:40.156Z,41.83
2023-05-01T10:20:40.165Z,41.31
2023-05-01T10:21:40.207Z,41.25
2023-05-01T10:22:40.162Z,42.60
2023-05-01T10:23:40.193Z,42.68
2023-05-01T10:24:40.164Z,43.16
2023-05-01T10:25:40.120Z,42.63
2023-05-01T10:26:40.124Z,41.69
2023-05-01T10:27:40.119Z,42.71
2023-05-01T10:28:40.100Z,40.73
2023-05-01T10:29:40.188Z,41.75
2023-05-01T10:30:40.127Z,43.51
2023-05-01T10:31:42.314Z,41.41
2023-05-01T10:32:40.117Z,42.19
2023-05-01T10:33:40.100Z,41.97
2023-05-01T10:34:40.073Z,39.28
2023-05-01T10:35:40.173Z,39.36
2023-05-01T10:36:40.052Z,39.74
2023-05-01T10:37:40.158Z,40.95
2023-05-01T10:38:40.054Z,40.42
2023-05-01T10:39:40.017Z,41.19
2023-05-01T10:40:40.177Z,38.78
2023-05-01T10:41:40.053Z,38.46
2023-05-01T10:42:39.997Z,37.57
2023-05-01T10:43:39.998Z,38.07
2023-05-01T10:44:40.004Z,38.86
2023-05-01T10:45:39.968Z,38.95
2023-05-01T10:46:40.002Z,40.46
2023-05-01T10:47:40.021Z,40.73
2023-05-01T10:48:39.938Z,39.64
2023-05-01T10:49:39.937Z,40.16
2023-05-01T10:50:39.928Z,39.98
2023-05-01T10:51:39.915Z,41.31
2023-05-01T10:52:39.926Z,41.66
2023-05-01T10:53:39.944Z,41.03
2023-05-01T10:54:39.920Z,42.40
2023-05-01T10:55:39.925Z,42.94
2023-05-01T10:56:39.885Z,44.36
2023-05-01T10:57:39.888Z,44.76
2023-05-01T10:58:39.903Z,42.41
2023-05-01T10:59:39.897Z,42.76
2023-05-01T11:00:39.858Z,41.49
2023-05-01T11:01:39.990Z,41.83
2023-05-01T11:02:39.848Z,38.87
2023-05-01T11:03:39.825Z,40.97
2023-05-01T11:04:39.843Z,38.90
2023-05-01T11:05:40.097Z,40.10
2023-05-01T11:06:39.845Z,39.58
2023-05-01T11:07:39.810Z,41.02
2023-05-01T11:08:39.809Z,39.86
2023-05-01T11:09:39.840Z,38.72
2023-05-01T11:10:39.808Z,40.36
2023-05-01T11:11:39.843Z,40.60
2023-05-01T11:12:39.833Z,37.38
2023-05-01T11:13:39.766Z,35.75
2023-05-01T11:14:39.769Z,35.60
2023-05-01T11:15:39.759Z,35.71
2023-05-01T11:16:39.861Z,35.47
2023-05-01T11:17:40.004Z,35.11
2023-05-01T11:18:39.749Z,38.64
2023-05-01T11:19:40.734Z,38.98
2023-05-01T11:20:39.789Z,38.96
2023-05-01T11:21:39.782Z,38.44
2023-05-01T11:22:39.708Z,38.78
2023-05-01T11:23:39.750Z,40.85
2023-05-01T11:24:39.696Z,41.23
2023-05-01T11:25:39.697Z,42.05
2023-05-01T11:26:39.672Z,42.55
2023-05-01T11:27:39.676Z,43.88
2023-05-01T11:28:39.650Z,42.54
2023-05-01T11:29:41.808Z,41.75
2023-05-01T11:30:39.673Z,39.84
2023-05-01T11:31:39.725Z,39.54
2023-05-01T11:32:39.679Z,38.85
2023-05-01T11:33:39.623Z,38.82
2023-05-01T11:34:39.625Z,37.88
2023-05-01T11:35:39.663Z,36.47
2023-05-01T11:36:39.681Z,37.72
2023-05-01T11:37:39.607Z,37.66
2023-05-01T11:38:39.607Z,36.46
2023-05-01T11:39:39.587Z,35.79
2023-05-01T11:40:39.634Z,35.71
2023-05-01T11:41:39.580Z,35.17
2023-05-01T11:42:39.566Z,36.99
2023-05-01T11:43:39.537Z,38.72
2023-05-01T11:44:39.538Z,37.94
2023-05-01T11:45:39.579Z,38.31
2023-05-01T11:46:39.511Z,36.41
2023-05-01T11:47:39.572Z,37.75
2023-05-01T11:48:39.543Z,37.12
2023-05-01T11:49:39.515Z,33.90
2023-05-01T11:50:39.523Z,35.31
2023-05-01T11:51:39.510Z,36.54
2023-05-01T11:52:39.498Z,39.66
2023-05-01T11:53:39.497Z,37.79
2023-05-01T11:54:39.480Z,41.19
2023-05-01T11:55:39.487Z,38.90
2023-05-01T11:56:39.441Z,39.12
2023-05-01T11:57:39.484Z,38.59
2023-05-01T11:58:39.462Z,38.63
2023-05-01T11:59:39.475Z,38.91
2023-05-01T12:00:39.520Z,36.52
2023-05-01T12:01:39.409Z,38.60
2023-05-01T12:02:39.527Z,40.20
2023-05-01T12:03:39.498Z,40.86
2023-05-01T12:04:39.425Z,40.84
2023-05-01T12:05:39.814Z,38.51
2023-05-01T12:06:39.415Z,38.79
2023-05-01T12:07:39.358Z,37.49
2023-05-01T12:08:39.371Z,37.75
2023-05-01T12:09:39.347Z,37.75
2023-05-01T12:10:39.344Z,37.75
2023-05-01T12:11:39.402Z,37.93
2023-05-01T12:12:39.350Z,39.50
2023-05-01T12:13:39.330Z,38.63
2023-05-01T12:14:39.310Z,37.79
2023-05-01T12:15:39.330Z,35.27
2023-05-01T12:16:39.435Z,34.50
2023-05-01T12:17:39.348Z,34.22
2023-05-01T12:18:39.320Z,33.21
2023-05-01T12:19:39.299Z,32.89
2023-05-01T12:20:39.288Z,35.21
2023-05-01T12:21:39.263Z,33.85
2023-05-01T12:22:39.251Z,35.13
2023-05-01T12:23:39.348Z,32.87
2023-05-01T12:24:39.242Z,34.30
2023-05-01T12:25:39.280Z,35.59
2023-05-01T12:26:39.236Z,33.63
2023-05-01T12:27:39.263Z,34.46
2023-05-01T12:28:39.249Z,34.30
2023-05-01T12:29:39.249Z,37.82
2023-05-01T12:30:39.206Z,36.84
2023-05-01T12:31:39.267Z,36.51
2023-05-01T12:32:39.255Z,38.02
2023-05-01T12:33:39.195Z,37.72
2023-05-01T12:34:39.178Z,37.34
2023-05-01T12:35:39.217Z,35.44
2023-05-01T12:36:39.159Z,36.44
2023-05-01T12:37:39.146Z,35.42
2023-05-01T12:38:39.127Z,36.29
2023-05-01T12:39:39.110Z,36.01
2023-05-01T12:40:39.116Z,35.63
2023-05-01T12:41:39.170Z,35.64
2023-05-01T12:42:39.111Z,39.84
2023-05-01T12:43:39.088Z,37.61
2023-05-01T12:44:39.096Z,42.05
2023-05-01T12:45:39.063Z,39.01
2023-05-01T12:46:39.120Z,39.22
2023-05-01T12:47:39.275Z,39.53
2023-05-01T12:48:39.140Z,39.05
2023-05-01T12:49:39.048Z,39.53
2023-05-01T12:50:39.041Z,39.61
2023-05-01T12:51:39.068Z,38.81
2023-05-01T12:52:39.125Z,39.11